Time;durP1;ratioP1;P1;durP2;ratioP2;P2;SDS_P1;SDS_P2;PMS_P1;PMS_P2;Temp;Humidity;BMP_temperature;BMP_pressure;BME280_temperature;BME280_humidity;BME280_pressure;Samples;Min_cycle;Max_cycle;Signal;HPM_P1;HPM_P2
2023/10/10 00:00:48;;;;;;;;;;;;;;;27.85;30.36;100933.81;5077003;28;1129;-29
2023/10/10 00:03:14;;;;;;;;;;;;;;;27.90;29.94;100929.69;5077887;28;1131;-31
2023/10/10 00:05:40;;;;;;;;;;;;;;;27.91;29.87;100926.78;5078039;28;1075;-31
2023/10/10 00:08:09;;;;;;;;;;;;;;;27.84;29.85;100926.69;5077503;28;820;-31
2023/10/10 00:10:34;;;;;;;;;;;;;;;27.90;30.08;100916.16;5078072;28;1054;-29
2023/10/10 00:13:05;;;;;;;;;;;;;;;27.78;30.38;100915.81;5077652;28;1913;-33
2023/10/10 00:15:38;;;;;;;;;;;;;;;27.94;29.86;100920.19;5077262;28;987;-35
2023/10/10 00:18:07;;;;;;;;;;;;;;;27.81;30.23;100899.22;5077435;28;1533;-29
2023/10/10 00:20:41;;;;;;;;;;;;;;;27.83;29.71;100905.25;5077518;28;920;-32
2023/10/10 00:23:16;;;;;;;;;;;;;;;27.96;29.61;100894.66;5077712;28;1940;-33
2023/10/10 00:25:44;;;;;;;;;;;;;;;27.86;29.95;100896.81;5086991;28;1185;-36
2023/10/10 00:28:20;;;;;;;;;;;;;;;27.85;29.79;100897.81;5077335;28;1043;-33
2023/10/10 00:30:46;;;;;;;;;;;;;;;27.79;30.25;100890.44;5076181;28;1112;-30
2023/10/10 00:33:14;;;;;;;;;;;;;;;27.89;29.47;100890.16;5077214;28;2005;-31
2023/10/10 00:35:42;;;;;;;;;;;;;;;27.94;29.76;100888.59;5075918;28;1112;-29
2023/10/10 00:38:11;;;;;;;;;;;;;;;27.50;31.24;100892.88;5077333;28;1006;-33
2023/10/10 00:40:39;;;;;;;;;;;;;;;27.33;32.77;100897.56;5077229;28;1153;-29
2023/10/10 00:43:11;;;;;;;;;;;;;;;27.35;32.94;100890.13;5076643;28;1062;-33
2023/10/10 00:45:37;;;;;;;;;;;;;;;27.29;33.51;100886.28;5076887;28;1049;-33
2023/10/10 00:48:04;;;;;;;;;;;;;;;27.36;33.45;100878.31;5075899;28;1156;-33
2023/10/10 00:50:34;;;;;;;;;;;;;;;27.26;33.60;100884.78;5076897;28;1093;-30
2023/10/10 00:53:00;;;;;;;;;;;;;;;27.35;33.89;100882.00;5059920;28;1961;-31
2023/10/10 00:55:26;;;;;;;;;;;;;;;27.32;33.80;100879.69;5112878;27;2196;-31
2023/10/10 00:57:55;;;;;;;;;;;;;;;27.34;33.82;100869.53;5075682;28;1023;-32
2023/10/10 01:00:25;;;;;;;;;;;;;;;27.29;34.12;100872.78;5076226;28;1066;-33
2023/10/10 01:02:51;;;;;;;;;;;;;;;27.24;34.37;100875.19;5077004;28;1123;-32
2023/10/10 01:05:23;;;;;;;;;;;;;;;27.24;33.91;100869.78;5075248;28;1028;-33
2023/10/10 01:07:51;;;;;;;;;;;;;;;27.23;34.31;100885.16;5076543;28;996;-34
2023/10/10 01:10:16;;;;;;;;;;;;;;;27.24;33.94;100876.00;5076904;28;1186;-33
2023/10/10 01:12:42;;;;;;;;;;;;;;;27.23;34.11;100868.94;5075259;28;2036;-35
2023/10/10 01:15:14;;;;;;;;;;;;;;;27.26;33.83;100865.88;5076381;28;1115;-32
2023/10/10 01:17:40;;;;;;;;;;;;;;;27.30;34.18;100865.50;5075192;28;1019;-31
2023/10/10 01:20:19;;;;;;;;;;;;;;;27.31;34.10;100867.19;5076069;28;1051;-32
2023/10/10 01:22:46;;;;;;;;;;;;;;;27.30;33.86;100869.06;5075104;28;1056;-32
2023/10/10 01:28:15;;;;;;;;;;;;;;;27.19;34.26;100870.34;5034136;28;1276;-31
2023/10/10 01:30:49;;;;;;;;;;;;;;;27.21;34.36;100872.84;5062207;28;1064;-33
2023/10/10 01:33:14;;;;;;;;;;;;;;;27.26;34.08;100881.22;5075616;28;1897;-32
2023/10/10 01:35:43;;;;;;;;;;;;;;;27.24;34.17;100872.50;5076285;28;1111;-29
2023/10/10 01:38:21;;;;;;;;;;;;;;;27.34;34.28;100874.94;5076287;28;1066;-29
2023/10/10 01:40:48;;;;;;;;;;;;;;;27.30;33.97;100869.06;5074875;28;1078;-30
2023/10/10 01:43:17;;;;;;;;;;;;;;;27.23;34.36;100868.94;5075955;28;1060;-29
2023/10/10 01:45:43;;;;;;;;;;;;;;;27.12;34.20;100869.38;5076223;28;1219;-33
2023/10/10 01:48:11;;;;;;;;;;;;;;;27.18;34.16;100873.19;5075903;28;1024;-29
2023/10/10 01:50:36;;;;;;;;;;;;;;;27.33;33.79;100865.13;5076034;28;1070;-31
2023/10/10 01:53:10;;;;;;;;;;;;;;;27.38;33.79;100873.53;5076031;28;1990;-31
2023/10/10 01:55:36;;;;;;;;;;;;;;;27.31;33.86;100868.03;5075928;28;1052;-31
2023/10/10 01:58:02;;;;;;;;;;;;;;;27.33;33.98;100873.25;5074455;28;2191;-31
2023/10/10 02:00:34;;;;;;;;;;;;;;;27.30;34.01;100874.47;5074869;28;1516;-31
2023/10/10 02:03:01;;;;;;;;;;;;;;;27.32;33.93;100880.53;5076140;28;1067;-31
2023/10/10 02:05:45;;;;;;;;;;;;;;;27.18;34.16;100876.75;5074819;28;1332;-35
2023/10/10 02:08:11;;;;;;;;;;;;;;;27.32;34.41;100882.38;5075672;28;1030;-33
2023/10/10 02:10:43;;;;;;;;;;;;;;;27.34;34.19;100878.47;5074308;28;1109;-29
2023/10/10 02:13:11;;;;;;;;;;;;;;;27.31;34.04;100869.91;5074130;28;1985;-33
2023/10/10 02:15:39;;;;;;;;;;;;;;;27.25;34.17;100883.09;5075917;28;1101;-29
2023/10/10 02:18:23;;;;;;;;;;;;;;;27.26;34.40;100886.63;5074047;28;1113;-33
2023/10/10 02:23:33;;;;;;;;;;;;;;;27.34;34.22;100889.25;5111869;27;1835;-31
2023/10/10 02:29:17;;;;;;;;;;;;;;;27.30;34.30;100873.59;5029415;28;1206;-36
2023/10/10 02:31:48;;;;;;;;;;;;;;;27.30;34.06;100873.59;5074243;28;1926;-33
2023/10/10 02:34:14;;;;;;;;;;;;;;;27.33;34.32;100875.94;5079523;28;1202;-31
2023/10/10 02:36:41;;;;;;;;;;;;;;;27.34;34.31;100872.25;5079236;28;1034;-34
2023/10/10 02:41:48;;;;;;;;;;;;;;;27.28;34.33;100879.19;5076845;28;1615;-30
2023/10/10 02:44:26;;;;;;;;;;;;;;;27.17;34.23;100875.06;5080949;28;1209;-30
2023/10/10 02:46:53;;;;;;;;;;;;;;;27.20;34.36;100872.00;5082373;28;1014;-31
2023/10/10 02:49:22;;;;;;;;;;;;;;;27.24;34.48;100862.50;5061111;28;1311;-29
2023/10/10 02:51:48;;;;;;;;;;;;;;;27.34;33.92;100869.53;5079419;28;1913;-33
2023/10/10 02:54:32;;;;;;;;;;;;;;;27.26;33.93;100856.91;5088907;28;1923;-36
2023/10/10 02:56:58;;;;;;;;;;;;;;;27.00;34.57;100845.47;5070034;28;889;-30
2023/10/10 02:59:30;;;;;;;;;;;;;;;27.19;34.21;100870.34;5060980;28;1112;-30
2023/10/10 03:01:57;;;;;;;;;;;;;;;27.18;34.22;100865.09;5061111;28;1381;-32
2023/10/10 03:04:38;;;;;;;;;;;;;;;27.13;34.43;100863.78;5061306;28;1236;-31
2023/10/10 03:07:07;;;;;;;;;;;;;;;27.14;34.38;100868.16;5061166;28;1163;-35
2023/10/10 03:09:42;;;;;;;;;;;;;;;27.20;34.51;100861.19;5078923;28;921;-31
2023/10/10 03:12:17;;;;;;;;;;;;;;;27.19;34.07;100858.69;5060763;28;1894;-31
2023/10/10 03:14:43;;;;;;;;;;;;;;;27.23;34.45;100868.09;5078894;28;1264;-29
2023/10/10 03:17:31;;;;;;;;;;;;;;;27.24;34.46;100865.19;5060748;28;1221;-29
2023/10/10 03:20:12;;;;;;;;;;;;;;;27.19;34.70;100864.94;5060821;28;1107;-34
2023/10/10 03:25:24;;;;;;;;;;;;;;;27.23;34.62;100868.94;5095584;28;2293;-32
2023/10/10 03:27:54;;;;;;;;;;;;;;;27.20;34.28;100865.75;5060305;28;1063;-32
2023/10/10 03:30:34;;;;;;;;;;;;;;;27.31;34.35;100865.31;5075962;28;1107;-29
2023/10/10 03:33:09;;;;;;;;;;;;;;;27.26;33.89;100876.66;5053923;28;1984;-29
2023/10/10 03:35:59;;;;;;;;;;;;;;;27.28;34.25;100875.69;5059630;28;1161;-34
2023/10/10 03:38:45;;;;;;;;;;;;;;;26.87;35.12;100870.34;5061017;28;1125;-35
2023/10/10 05:25:07;;;;;;;;;;;;;;;27.10;32.81;100957.81;5069554;28;1835;-35
2023/10/10 05:27:33;;;;;;;;;;;;;;;27.22;32.06;100961.78;5078468;28;1394;-32
2023/10/10 05:29:59;;;;;;;;;;;;;;;27.35;31.70;100963.03;5076800;28;1166;-36
2023/10/10 05:32:30;;;;;;;;;;;;;;;27.27;32.20;100966.66;5075629;28;1967;-31
2023/10/10 05:34:58;;;;;;;;;;;;;;;27.42;32.11;100957.78;5076078;28;936;-33
2023/10/10 05:37:24;;;;;;;;;;;;;;;27.50;31.88;100961.25;5076467;28;1086;-35
2023/10/10 05:39:56;;;;;;;;;;;;;;;27.59;32.16;100961.19;5076515;28;1006;-32
2023/10/10 05:42:25;;;;;;;;;;;;;;;27.44;32.27;100962.00;5076185;28;1054;-33
2023/10/10 05:44:51;;;;;;;;;;;;;;;27.72;31.84;100963.31;5058521;28;1242;-35
2023/10/10 05:47:18;;;;;;;;;;;;;;;27.49;32.55;100964.97;5075844;28;957;-31
2023/10/10 05:49:43;;;;;;;;;;;;;;;27.48;32.54;100959.75;5076017;28;1050;-35
2023/10/10 05:52:09;;;;;;;;;;;;;;;27.46;32.67;100964.50;5076375;28;1902;-31
2023/10/10 05:54:35;;;;;;;;;;;;;;;27.65;32.25;100971.28;5076404;28;1819;-36
2023/10/10 05:57:02;;;;;;;;;;;;;;;27.63;32.51;100971.44;5075034;28;1143;-35
2023/10/10 05:59:28;;;;;;;;;;;;;;;27.49;32.07;100973.06;5075936;28;1003;-32
2023/10/10 06:01:54;;;;;;;;;;;;;;;27.61;32.28;100981.59;5076192;28;1138;-33
2023/10/10 06:04:19;;;;;;;;;;;;;;;27.59;32.28;100989.03;5076629;28;1165;-31
2023/10/10 06:06:46;;;;;;;;;;;;;;;27.54;32.83;100998.72;5075790;28;1038;-35
2023/10/10 06:09:18;;;;;;;;;;;;;;;27.89;31.95;100998.31;5075276;28;1065;-28
2023/10/10 06:11:44;;;;;;;;;;;;;;;27.80;32.53;100989.41;5075492;28;1952;-31
2023/10/10 06:14:11;;;;;;;;;;;;;;;27.86;32.25;101005.75;5075462;28;1046;-28
2023/10/10 06:16:37;;;;;;;;;;;;;;;27.79;32.45;101004.81;5076031;28;1096;-28
2023/10/10 06:19:03;;;;;;;;;;;;;;;27.89;32.59;101014.53;5075918;28;1038;-30
2023/10/10 06:21:29;;;;;;;;;;;;;;;27.85;32.56;101005.94;5075438;28;1050;-28
2023/10/10 06:23:55;;;;;;;;;;;;;;;27.98;31.97;101016.13;5075533;28;2428;-29
2023/10/10 06:26:21;;;;;;;;;;;;;;;27.81;32.73;101023.56;5075721;28;1110;-28
2023/10/10 06:28:53;;;;;;;;;;;;;;;27.87;32.87;101020.13;5075576;28;1102;-28
2023/10/10 06:31:23;;;;;;;;;;;;;;;27.69;32.62;101020.44;5075619;28;1027;-29
2023/10/10 06:33:52;;;;;;;;;;;;;;;27.40;33.53;101022.78;5075217;28;1917;-27
2023/10/10 06:38:46;;;;;;;;;;;;;;;27.58;32.35;101024.34;5075463;28;995;-36
2023/10/10 06:41:17;;;;;;;;;;;;;;;27.73;32.57;101027.16;5075229;28;1042;-31
2023/10/10 06:43:46;;;;;;;;;;;;;;;27.75;32.54;101034.06;5075452;28;1217;-29
2023/10/10 06:46:17;;;;;;;;;;;;;;;27.85;33.88;101030.28;5074932;28;1138;-31
2023/10/10 06:48:43;;;;;;;;;;;;;;;27.90;33.00;101032.41;5075202;28;1042;-29
2023/10/10 06:51:09;;;;;;;;;;;;;;;28.04;32.67;101034.34;5075476;28;1049;-29
2023/10/10 06:53:35;;;;;;;;;;;;;;;28.25;32.24;101030.09;5075179;28;2430;-32
2023/10/10 06:56:17;;;;;;;;;;;;;;;28.14;32.35;101039.50;5075374;28;1077;-32
2023/10/10 06:58:43;;;;;;;;;;;;;;;28.26;32.11;101034.47;5075181;28;1100;-29
2023/10/10 07:01:11;;;;;;;;;;;;;;;28.22;31.91;101028.59;5075006;28;1006;-30
2023/10/10 07:03:46;;;;;;;;;;;;;;;28.40;31.83;101034.72;5075343;28;943;-29
2023/10/10 07:06:12;;;;;;;;;;;;;;;28.46;31.68;101036.69;5075305;28;1114;-30
2023/10/10 07:08:37;;;;;;;;;;;;;;;28.49;31.58;101030.91;5076329;28;1197;-33
2023/10/10 07:11:03;;;;;;;;;;;;;;;28.58;31.84;101029.78;5078128;28;1062;-31
2023/10/10 07:13:32;;;;;;;;;;;;;;;28.55;31.46;101026.59;5077414;28;1917;-31
2023/10/10 07:15:58;;;;;;;;;;;;;;;28.27;29.99;101025.34;5082836;28;1002;-33
2023/10/10 07:18:23;;;;;;;;;;;;;;;28.15;31.27;101026.81;5078839;28;1324;-31
2023/10/10 07:21:07;;;;;;;;;;;;;;;28.32;31.32;101033.75;5085379;28;1062;-30
2023/10/10 07:23:53;;;;;;;;;;;;;;;28.35;31.75;101029.84;5082628;28;1819;-29
2023/10/10 07:26:20;;;;;;;;;;;;;;;28.39;31.29;101035.75;5082198;28;1086;-32
2023/10/10 07:28:49;;;;;;;;;;;;;;;28.35;31.62;101041.53;5078441;28;1119;-31
2023/10/10 07:31:17;;;;;;;;;;;;;;;28.34;31.46;101042.53;5080719;28;1166;-34
2023/10/10 07:33:54;;;;;;;;;;;;;;;28.33;31.78;101045.41;5071837;28;1981;-32
2023/10/10 07:36:24;;;;;;;;;;;;;;;28.43;31.62;101048.72;5058431;28;1108;-32
2023/10/10 07:38:54;;;;;;;;;;;;;;;28.41;31.69;101050.75;5058668;28;999;-34
2023/10/10 07:41:27;;;;;;;;;;;;;;;28.40;31.58;101054.50;5083344;28;1237;-33
2023/10/10 07:43:58;;;;;;;;;;;;;;;28.25;31.30;101032.78;5083976;28;1209;-29
2023/10/10 07:46:24;;;;;;;;;;;;;;;28.18;31.86;101051.63;5070587;28;1086;-32
2023/10/10 07:48:54;;;;;;;;;;;;;;;28.39;31.52;101046.56;5078223;28;1077;-32
2023/10/10 07:51:28;;;;;;;;;;;;;;;28.41;31.53;101047.22;5076789;28;1264;-29
2023/10/10 07:54:12;;;;;;;;;;;;;;;28.35;31.58;101037.97;5072657;28;1989;-30
2023/10/10 07:56:47;;;;;;;;;;;;;;;28.31;31.43;101044.75;5059244;28;1143;-31
2023/10/10 07:59:13;;;;;;;;;;;;;;;28.32;31.59;101054.53;5069443;28;1031;-30
2023/10/10 08:01:41;;;;;;;;;;;;;;;28.42;30.90;101055.16;5069909;28;1378;-32
2023/10/10 08:04:12;;;;;;;;;;;;;;;28.66;30.44;101061.31;5062445;28;1011;-31
2023/10/10 08:06:38;;;;;;;;;;;;;;;28.58;30.74;101066.81;5064713;28;1042;-31
2023/10/10 08:11:41;;;;;;;;;;;;;;;28.56;30.82;101067.00;5077944;28;876;-30
2023/10/10 08:14:07;;;;;;;;;;;;;;;28.41;30.44;101066.16;5077815;28;2018;-31
2023/10/10 08:16:36;;;;;;;;;;;;;;;28.47;30.74;101070.84;5068891;28;1201;-30
2023/10/10 08:19:04;;;;;;;;;;;;;;;28.58;30.40;101086.63;5084299;28;1059;-32
2023/10/10 08:21:36;;;;;;;;;;;;;;;28.15;27.16;101072.78;5076468;28;1179;-33
2023/10/10 08:24:01;;;;;;;;;;;;;;;28.20;25.00;101082.03;5077702;28;2215;-31
2023/10/10 08:26:29;;;;;;;;;;;;;;;27.79;25.60;101076.94;5082250;28;1054;-29
2023/10/10 08:28:55;;;;;;;;;;;;;;;27.53;24.67;101083.50;5075759;28;1042;-35
2023/10/10 08:31:22;;;;;;;;;;;;;;;27.49;24.39;101067.63;5076278;28;1197;-30
2023/10/10 08:33:48;;;;;;;;;;;;;;;27.56;26.40;101078.56;5075902;28;1906;-30
2023/10/10 08:36:23;;;;;;;;;;;;;;;27.63;27.55;101071.44;5084240;28;988;-30
2023/10/10 08:38:56;;;;;;;;;;;;;;;27.65;27.87;101078.53;5075842;28;1352;-30
2023/10/10 08:41:28;;;;;;;;;;;;;;;27.72;27.75;101064.16;5088966;28;1358;-30
2023/10/10 08:43:57;;;;;;;;;;;;;;;27.71;27.93;101064.34;5092803;28;1320;-31
2023/10/10 08:46:29;;;;;;;;;;;;;;;27.67;28.18;101066.53;5087566;28;1031;-30
2023/10/10 08:48:59;;;;;;;;;;;;;;;27.78;28.20;101067.19;5084344;28;1308;-28
2023/10/10 08:51:26;;;;;;;;;;;;;;;27.92;28.00;101063.69;5073955;28;1078;-32
2023/10/10 08:53:51;;;;;;;;;;;;;;;27.87;28.29;101075.03;5067530;28;2396;-31
2023/10/10 08:56:17;;;;;;;;;;;;;;;27.81;28.40;101077.63;5075025;28;1062;-31
2023/10/10 08:58:42;;;;;;;;;;;;;;;27.66;28.67;101067.53;5058877;28;1015;-28
2023/10/10 09:01:08;;;;;;;;;;;;;;;27.80;28.73;101090.28;5085738;28;1303;-30
2023/10/10 09:03:34;;;;;;;;;;;;;;;27.84;28.46;101088.91;5078157;28;1334;-29
2023/10/10 09:06:20;;;;;;;;;;;;;;;27.71;28.82;101091.38;5089642;28;1375;-28
2023/10/10 09:08:49;;;;;;;;;;;;;;;27.57;28.56;101055.09;5071888;28;1636;-28
2023/10/10 09:11:23;;;;;;;;;;;;;;;27.69;29.19;101096.97;5077294;28;1276;-29
2023/10/10 09:13:51;;;;;;;;;;;;;;;27.75;29.06;101098.94;5075631;28;1913;-32
2023/10/10 09:16:17;;;;;;;;;;;;;;;28.00;28.92;101100.63;5085175;28;1429;-32
2023/10/10 09:18:42;;;;;;;;;;;;;;;27.93;29.06;101103.19;5086063;28;1184;-33
2023/10/10 09:21:18;;;;;;;;;;;;;;;27.92;29.28;101098.81;5080055;28;1461;-31
2023/10/10 09:23:52;;;;;;;;;;;;;;;27.99;29.06;101109.75;5077592;28;1725;-30
2023/10/10 09:28:55;;;;;;;;;;;;;;;28.03;27.60;101102.13;5079822;28;978;-32
2023/10/10 09:31:26;;;;;;;;;;;;;;;28.37;28.26;101108.97;5069560;28;1259;-31
2023/10/10 09:33:55;;;;;;;;;;;;;;;28.23;26.81;101108.72;5080326;28;1910;-33
2023/10/10 09:36:26;;;;;;;;;;;;;;;28.08;28.85;101099.72;5077141;28;1254;-32
2023/10/10 09:39:26;;;;;;;;;;;;;;;28.19;29.00;101102.00;5080341;28;1159;-31
2023/10/10 09:55:25;;;;;;;;;;;;;;;28.36;28.85;101081.06;5084769;28;2554;-31
2023/10/10 09:58:01;;;;;;;;;;;;;;;28.24;28.80;101053.59;5076062;28;1171;-30
2023/10/10 10:09:08;;;;;;;;;;;;;;;28.44;29.03;101071.22;5076062;28;1061;-31
2023/10/10 10:11:37;;;;;;;;;;;;;;;28.51;28.69;101076.72;5074770;28;1116;-32
2023/10/10 10:14:17;;;;;;;;;;;;;;;28.57;28.70;101078.69;5073775;28;1984;-32
2023/10/10 10:16:46;;;;;;;;;;;;;;;28.38;28.91;101088.19;5074541;28;1155;-32
2023/10/10 10:19:15;;;;;;;;;;;;;;;28.30;29.30;101087.19;5081853;28;1261;-33
2023/10/10 10:24:32;;;;;;;;;;;;;;;28.27;29.46;101092.13;5076206;28;1689;-31
2023/10/10 10:27:11;;;;;;;;;;;;;;;28.17;29.53;101084.25;5075814;28;1129;-35
2023/10/10 10:29:37;;;;;;;;;;;;;;;28.29;29.62;101084.66;5075414;28;1059;-33
2023/10/10 10:32:05;;;;;;;;;;;;;;;28.48;29.02;101086.88;5075298;28;1964;-34
2023/10/10 10:37:06;;;;;;;;;;;;;;;28.77;28.76;101091.66;5108123;28;1293;-31
2023/10/10 10:39:37;;;;;;;;;;;;;;;28.48;29.34;101083.31;5060258;28;1207;-29
2023/10/10 10:42:11;;;;;;;;;;;;;;;28.59;29.01;101088.28;5068917;28;1085;-29
2023/10/10 10:47:46;;;;;;;;;;;;;;;28.42;29.27;101090.34;5067151;28;1418;-30
2023/10/10 10:50:27;;;;;;;;;;;;;;;28.25;29.73;101086.91;5089045;28;1398;-33
2023/10/10 10:52:56;;;;;;;;;;;;;;;28.35;27.36;101084.81;5077189;28;2039;-29
2023/10/10 10:55:27;;;;;;;;;;;;;;;28.03;26.32;101073.22;5075166;28;2593;-30
2023/10/10 10:58:05;;;;;;;;;;;;;;;28.01;25.52;101102.28;5091853;28;1367;-29
2023/10/10 11:03:24;;;;;;;;;;;;;;;28.04;23.88;101099.25;5076455;28;1359;-37
2023/10/10 11:05:56;;;;;;;;;;;;;;;28.04;23.93;101093.84;5094187;28;1366;-34
2023/10/10 11:08:51;;;;;;;;;;;;;;;27.98;24.25;101097.25;5078121;28;1194;-29
2023/10/10 11:13:51;;;;;;;;;;;;;;;27.89;23.76;101103.75;5081612;28;1910;-33
2023/10/10 11:16:18;;;;;;;;;;;;;;;27.71;23.22;101102.19;5081177;28;1280;-31
2023/10/10 11:18:43;;;;;;;;;;;;;;;27.71;23.51;101105.72;5066990;28;1202;-33
2023/10/10 11:21:11;;;;;;;;;;;;;;;27.69;23.17;101102.38;5092473;27;1264;-33
2023/10/10 11:23:43;;;;;;;;;;;;;;;27.62;22.95;101101.34;5069011;28;1920;-30
2023/10/10 11:26:13;;;;;;;;;;;;;;;27.56;23.02;101110.19;5069372;28;1305;-32
2023/10/10 11:28:47;;;;;;;;;;;;;;;27.71;23.03;101113.81;5069802;28;1203;-36
2023/10/10 11:31:14;;;;;;;;;;;;;;;27.87;22.59;101121.00;5076333;28;1390;-31
2023/10/10 11:33:48;;;;;;;;;;;;;;;27.93;22.04;101110.47;5090762;28;1913;-34
2023/10/10 11:36:20;;;;;;;;;;;;;;;27.82;22.26;101109.88;5087792;28;1389;-32
2023/10/10 11:38:55;;;;;;;;;;;;;;;27.81;22.03;101110.88;5072294;28;1117;-29
2023/10/10 11:41:29;;;;;;;;;;;;;;;27.71;22.59;101110.28;5081007;28;1147;-30
2023/10/10 11:44:04;;;;;;;;;;;;;;;27.73;22.41;101102.81;5078207;28;1383;-31
2023/10/10 11:46:29;;;;;;;;;;;;;;;27.77;22.75;101106.88;5076228;28;1221;-31
2023/10/10 11:48:55;;;;;;;;;;;;;;;27.88;22.15;101108.31;5076262;28;1326;-33
2023/10/10 11:51:36;;;;;;;;;;;;;;;27.81;22.19;101113.59;5080265;28;1207;-31
2023/10/10 11:54:02;;;;;;;;;;;;;;;27.69;22.52;101109.63;5083013;28;1986;-34
2023/10/10 11:56:31;;;;;;;;;;;;;;;27.33;22.60;101097.44;5078144;28;1101;-35
2023/10/10 11:58:56;;;;;;;;;;;;;;;27.29;22.66;101118.59;5078414;28;1254;-34
2023/10/10 12:04:20;;;;;;;;;;;;;;;27.50;22.23;101117.97;5068531;28;1199;-34
2023/10/10 12:06:46;;;;;;;;;;;;;;;27.62;21.95;101113.00;5073974;28;1211;-33
2023/10/10 12:09:18;;;;;;;;;;;;;;;27.69;22.22;101115.03;5077292;28;1161;-31
2023/10/10 12:11:44;;;;;;;;;;;;;;;27.83;22.08;101113.41;5077224;28;986;-31
2023/10/10 12:14:12;;;;;;;;;;;;;;;28.09;21.79;101115.75;5071378;28;1929;-34
2023/10/10 12:16:37;;;;;;;;;;;;;;;28.07;21.58;101116.97;5077974;28;1179;-34
2023/10/10 12:19:05;;;;;;;;;;;;;;;28.06;21.63;101110.72;5077604;28;1115;-31
2023/10/10 12:21:31;;;;;;;;;;;;;;;27.92;21.62;101108.78;5076598;28;1107;-35
2023/10/10 12:23:57;;;;;;;;;;;;;;;27.83;21.39;101118.81;5086623;28;1927;-32
2023/10/10 12:26:23;;;;;;;;;;;;;;;27.84;21.81;101115.94;5086609;28;1158;-34
2023/10/10 12:28:52;;;;;;;;;;;;;;;27.74;21.99;101120.75;5068579;28;1103;-33
2023/10/10 12:31:18;;;;;;;;;;;;;;;27.84;22.13;101123.22;5062620;28;1033;-32
2023/10/10 12:33:48;;;;;;;;;;;;;;;27.75;22.05;101119.72;5071781;28;1918;-33
2023/10/10 12:36:15;;;;;;;;;;;;;;;27.60;21.75;101130.41;5075027;28;1079;-30
2023/10/10 12:38:41;;;;;;;;;;;;;;;27.53;22.10;101135.69;5078822;28;1038;-36
2023/10/10 12:41:06;;;;;;;;;;;;;;;27.56;22.20;101138.03;5077282;28;1046;-31
2023/10/10 12:43:37;;;;;;;;;;;;;;;27.49;21.93;101137.06;5085594;28;1089;-29
2023/10/10 12:46:04;;;;;;;;;;;;;;;27.55;22.01;101128.25;5077221;28;1004;-31
2023/10/10 12:48:31;;;;;;;;;;;;;;;27.91;21.48;101137.69;5076659;28;1071;-34
2023/10/10 12:51:00;;;;;;;;;;;;;;;28.02;21.28;101117.50;5076969;28;1195;-29
2023/10/10 12:53:30;;;;;;;;;;;;;;;28.15;20.98;101114.19;5075388;28;2477;-32
2023/10/10 12:56:01;;;;;;;;;;;;;;;28.09;21.11;101121.16;5076646;28;1085;-31
2023/10/10 12:58:26;;;;;;;;;;;;;;;28.26;20.95;101117.50;5085584;28;1394;-33
2023/10/10 13:00:52;;;;;;;;;;;;;;;28.17;20.86;101130.25;5076573;28;1030;-32
2023/10/10 13:03:18;;;;;;;;;;;;;;;28.08;20.71;101121.34;5076963;28;1131;-30
2023/10/10 13:05:47;;;;;;;;;;;;;;;27.76;21.31;101118.69;5076414;28;1087;-30
2023/10/10 13:08:17;;;;;;;;;;;;;;;27.75;21.42;101114.31;5076553;28;1165;-31
2023/10/10 13:10:43;;;;;;;;;;;;;;;27.62;21.57;101099.50;5074382;28;1108;-33
2023/10/10 13:13:09;;;;;;;;;;;;;;;27.75;21.46;101123.25;5076138;28;1898;-32
2023/10/10 13:15:47;;;;;;;;;;;;;;;27.74;21.76;101131.56;5076698;28;1030;-32
2023/10/10 13:18:19;;;;;;;;;;;;;;;27.41;21.66;101139.81;5075743;28;1030;-31
2023/10/10 13:20:50;;;;;;;;;;;;;;;27.73;21.46;101124.44;5075776;28;975;-33
2023/10/10 13:23:16;;;;;;;;;;;;;;;27.72;21.26;101114.66;5076231;28;2333;-33
2023/10/10 13:25:41;;;;;;;;;;;;;;;27.42;21.56;101123.41;5078223;28;1127;-34
2023/10/10 13:28:09;;;;;;;;;;;;;;;27.39;21.65;101134.56;5078411;28;1235;-34
2023/10/10 13:30:41;;;;;;;;;;;;;;;27.28;21.74;101140.38;5076951;28;1136;-31
2023/10/10 13:33:07;;;;;;;;;;;;;;;27.33;21.57;101140.66;5076759;28;1894;-32
2023/10/10 13:35:37;;;;;;;;;;;;;;;27.54;21.47;101137.38;5072678;28;1217;-31
2023/10/10 13:38:05;;;;;;;;;;;;;;;27.68;21.26;101138.50;5070376;28;1202;-31
2023/10/10 13:40:37;;;;;;;;;;;;;;;27.68;21.18;101145.72;5076280;28;1461;-31
2023/10/10 13:43:08;;;;;;;;;;;;;;;28.02;20.81;101136.44;5074824;28;1132;-29
2023/10/10 13:45:39;;;;;;;;;;;;;;;28.27;20.49;101147.06;5076872;28;1217;-31
2023/10/10 13:48:08;;;;;;;;;;;;;;;28.26;20.63;101148.06;5083566;28;1150;-31
2023/10/10 13:50:50;;;;;;;;;;;;;;;28.16;20.21;101137.50;5071850;28;1327;-33
2023/10/10 13:53:16;;;;;;;;;;;;;;;28.43;19.82;101142.56;5075750;28;2415;-35
2023/10/10 13:55:43;;;;;;;;;;;;;;;28.31;20.34;101139.44;5073703;28;1221;-36
2023/10/10 13:58:16;;;;;;;;;;;;;;;28.33;20.31;101148.22;5068609;28;1402;-33
2023/10/10 14:00:52;;;;;;;;;;;;;;;28.35;20.47;101151.59;5073905;28;1036;-33
2023/10/10 14:03:28;;;;;;;;;;;;;;;28.39;19.81;101152.94;5072700;28;1187;-29
2023/10/10 14:06:00;;;;;;;;;;;;;;;28.49;19.52;101144.56;5076606;28;1080;-31
2023/10/10 14:08:26;;;;;;;;;;;;;;;28.49;19.74;101155.38;5078189;28;1202;-31
2023/10/10 14:10:53;;;;;;;;;;;;;;;28.44;19.75;101155.94;5078455;28;1210;-30
2023/10/10 14:13:19;;;;;;;;;;;;;;;28.41;19.68;101150.88;5075435;28;1972;-34
2023/10/10 14:15:57;;;;;;;;;;;;;;;28.46;19.40;101162.00;5076503;28;1198;-32
2023/10/10 14:18:50;;;;;;;;;;;;;;;28.38;19.38;101175.59;5078039;28;1146;-31
2023/10/10 14:21:24;;;;;;;;;;;;;;;28.39;19.41;101163.75;5075850;28;1660;-31
2023/10/10 14:23:50;;;;;;;;;;;;;;;28.47;19.27;101170.97;5088370;28;1872;-34
2023/10/10 14:26:26;;;;;;;;;;;;;;;28.43;19.35;101181.31;5076077;28;1065;-31
2023/10/10 14:28:52;;;;;;;;;;;;;;;28.42;19.01;101190.44;5068215;28;1023;-31
2023/10/10 14:31:27;;;;;;;;;;;;;;;28.10;19.12;101176.09;5076673;28;1221;-30
2023/10/10 14:33:53;;;;;;;;;;;;;;;27.95;19.29;101182.28;5078961;28;2256;-35
2023/10/10 14:36:19;;;;;;;;;;;;;;;27.76;19.30;101191.66;5081744;28;1070;-31
2023/10/10 14:38:44;;;;;;;;;;;;;;;27.48;19.63;101200.19;5078177;28;1069;-32
2023/10/10 14:41:16;;;;;;;;;;;;;;;27.33;19.74;101205.47;5068693;28;1185;-32
2023/10/10 14:43:47;;;;;;;;;;;;;;;27.23;19.99;101208.38;5084061;28;1081;-32
2023/10/10 14:46:22;;;;;;;;;;;;;;;26.99;20.10;101221.72;5075453;28;1079;-32
2023/10/10 14:48:48;;;;;;;;;;;;;;;26.72;20.25;101209.44;5074864;28;1289;-32
2023/10/10 14:51:17;;;;;;;;;;;;;;;26.81;19.75;101221.09;5077680;28;1293;-30
2023/10/10 14:53:48;;;;;;;;;;;;;;;26.79;19.98;101221.25;5074382;28;1975;-32
2023/10/10 14:56:19;;;;;;;;;;;;;;;26.68;19.85;101213.47;5073690;28;1200;-34
2023/10/10 14:58:48;;;;;;;;;;;;;;;26.76;20.10;101221.56;5076662;28;1237;-34
2023/10/10 15:01:17;;;;;;;;;;;;;;;26.70;19.69;101231.22;5079158;28;1226;-33
2023/10/10 15:03:43;;;;;;;;;;;;;;;26.70;19.85;101230.34;5074034;28;1197;-32
2023/10/10 15:06:08;;;;;;;;;;;;;;;26.43;20.08;101235.03;5075884;28;1030;-34
2023/10/10 15:08:34;;;;;;;;;;;;;;;26.34;20.32;101232.34;5070104;28;1165;-36
2023/10/10 15:11:00;;;;;;;;;;;;;;;26.41;19.95;101237.91;5067463;28;1132;-32
2023/10/10 15:13:26;;;;;;;;;;;;;;;26.35;20.41;101234.03;5069012;28;1906;-31
2023/10/10 15:15:51;;;;;;;;;;;;;;;26.48;20.36;101252.44;5074653;28;1094;-35
2023/10/10 15:18:17;;;;;;;;;;;;;;;26.46;20.12;101253.63;5074853;28;1034;-33
2023/10/10 15:20:48;;;;;;;;;;;;;;;26.52;20.26;101261.91;5074172;28;1087;-32
2023/10/10 15:23:18;;;;;;;;;;;;;;;26.27;20.04;101259.13;5066815;28;1783;-32
2023/10/10 15:25:44;;;;;;;;;;;;;;;26.24;20.44;101282.88;5074652;28;1198;-31
2023/10/10 15:28:10;;;;;;;;;;;;;;;26.08;20.30;101276.41;5074731;28;1246;-32
2023/10/10 15:30:38;;;;;;;;;;;;;;;26.06;20.48;101289.19;5081293;28;1194;-31
2023/10/10 15:33:05;;;;;;;;;;;;;;;26.13;20.26;101287.56;5086761;28;1983;-31
2023/10/10 15:35:32;;;;;;;;;;;;;;;26.37;20.24;101287.81;5078876;28;1078;-29
2023/10/10 15:37:57;;;;;;;;;;;;;;;26.44;19.99;101293.41;5078119;28;1166;-33
2023/10/10 15:40:23;;;;;;;;;;;;;;;26.37;20.37;101304.84;5078261;28;1028;-33
2023/10/10 15:42:51;;;;;;;;;;;;;;;26.42;20.22;101298.97;5082249;28;1061;-33
2023/10/10 15:45:22;;;;;;;;;;;;;;;26.15;21.14;101307.13;5078526;28;1112;-33